createdAt,value
2022-08-19T00:00:00.136Z,0.00
2022-08-19T00:10:00.118Z,0.00
2022-08-19T00:20:00.098Z,0.00
2022-08-19T00:30:00.149Z,0.00
2022-08-19T00:40:02.125Z,0.00
2022-08-19T00:50:00.117Z,0.00
2022-08-19T01:00:02.105Z,0.00
2022-08-19T01:10:00.100Z,0.00
2022-08-19T01:20:00.128Z,0.00
2022-08-19T01:30:00.120Z,0.00
2022-08-19T01:40:00.166Z,0.00
2022-08-19T01:50:00.135Z,0.00
2022-08-19T02:00:00.088Z,0.00
2022-08-19T02:10:00.087Z,0.00
2022-08-19T02:20:00.124Z,0.00
2022-08-19T02:30:00.088Z,0.00
2022-08-19T02:40:01.656Z,0.00
2022-08-19T02:50:00.119Z,0.00
2022-08-19T03:00:00.125Z,0.00
2022-08-19T03:10:00.113Z,0.00
2022-08-19T03:20:00.184Z,0.23
2022-08-19T03:30:00.085Z,1.70
2022-08-19T03:40:00.321Z,7.70
2022-08-19T03:50:00.137Z,25.83
2022-08-19T04:00:03.711Z,61.67
2022-08-19T04:10:00.102Z,113.75
2022-08-19T04:20:00.132Z,233.75
2022-08-19T04:30:00.480Z,288.33
2022-08-19T04:40:02.202Z,408.33
2022-08-19T04:50:02.735Z,670.00
2022-08-19T05:00:00.159Z,1282.92
2022-08-19T05:10:00.150Z,1613.75
2022-08-19T05:20:00.124Z,1036.67
2022-08-19T05:30:00.096Z,2826.67
2022-08-19T05:40:00.277Z,1545.00
2022-08-19T05:50:00.123Z,3063.33
2022-08-19T06:00:01.202Z,2900.83
2022-08-19T06:10:01.312Z,2955.42
2022-08-19T06:20:00.346Z,3275.00
2022-08-19T06:30:00.111Z,3467.08
2022-08-19T06:40:02.164Z,3270.42
2022-08-19T06:50:01.493Z,2267.92
2022-08-19T07:00:00.109Z,2802.92
2022-08-19T07:10:01.946Z,3769.58
2022-08-19T07:20:05.266Z,4735.83
2022-08-19T07:30:00.094Z,5154.17
2022-08-19T07:40:00.311Z,5072.08
2022-08-19T07:50:00.145Z,5280.00
2022-08-19T08:00:00.127Z,4238.33
2022-08-19T08:10:00.343Z,3220.83
2022-08-19T08:20:00.111Z,3077.08
2022-08-19T08:30:00.136Z,3891.67
2022-08-19T08:40:00.256Z,4295.42
2022-08-19T08:50:00.117Z,3052.92
2022-08-19T09:00:00.108Z,3134.17
2022-08-19T09:10:00.097Z,4788.75
2022-08-19T09:20:00.136Z,7495.83
2022-08-19T09:30:00.107Z,8123.75
2022-08-19T09:40:00.160Z,7060.00
2022-08-19T09:50:00.132Z,6604.58
2022-08-19T10:00:00.111Z,7178.33
2022-08-19T10:10:00.105Z,6232.08
2022-08-19T10:20:00.123Z,6520.83
2022-08-19T10:30:00.112Z,7127.08
2022-08-19T10:40:00.220Z,4266.67
2022-08-19T10:50:00.113Z,2801.25
2022-08-19T11:00:00.146Z,1927.08
2022-08-19T11:10:00.130Z,3573.33
2022-08-19T11:20:00.112Z,3477.08
2022-08-19T11:30:00.105Z,2953.75
2022-08-19T11:40:00.216Z,3286.67
2022-08-19T11:50:00.107Z,4473.33
2022-08-19T12:00:00.140Z,3106.25
2022-08-19T12:10:00.117Z,2037.08
2022-08-19T12:20:00.091Z,3348.33
2022-08-19T12:30:01.046Z,3755.00
2022-08-19T12:40:00.303Z,6031.67
2022-08-19T12:50:00.098Z,17765.83
2022-08-19T13:00:00.169Z,18315.00
2022-08-19T13:10:00.109Z,7007.50
2022-08-19T13:20:00.116Z,5122.08
2022-08-19T13:30:00.147Z,3867.50
2022-08-19T13:40:00.229Z,5682.92
2022-08-19T13:50:00.109Z,5795.00
2022-08-19T14:00:01.927Z,11200.42
2022-08-19T14:10:00.143Z,5622.50
2022-08-19T14:20:00.133Z,4107.50
2022-08-19T14:30:00.301Z,3131.67
2022-08-19T14:40:00.242Z,3804.17
2022-08-19T14:50:00.085Z,4134.58
2022-08-19T15:00:00.156Z,3413.75
2022-08-19T15:10:00.128Z,2180.42
2022-08-19T15:20:00.234Z,690.00
2022-08-19T15:30:01.100Z,568.33
2022-08-19T15:40:00.294Z,329.17
2022-08-19T15:50:00.815Z,203.75
2022-08-19T16:00:02.776Z,426.67
2022-08-19T16:10:00.117Z,608.33
2022-08-19T16:20:00.127Z,1380.00
2022-08-19T16:30:00.151Z,2475.00
2022-08-19T16:40:00.217Z,1948.75
2022-08-19T16:50:00.085Z,1421.25
2022-08-19T17:00:00.152Z,876.67
2022-08-19T17:10:00.132Z,735.83
2022-08-19T17:20:00.122Z,261.67
2022-08-19T17:30:00.146Z,315.42
2022-08-19T17:40:00.213Z,126.67
2022-08-19T17:50:00.108Z,172.50
2022-08-19T18:00:00.101Z,87.08
2022-08-19T18:10:01.705Z,56.25
2022-08-19T18:20:00.124Z,21.67
2022-08-19T18:30:00.275Z,9.96
2022-08-19T18:40:01.269Z,2.26
2022-08-19T18:50:00.111Z,0.23
2022-08-19T19:00:01.002Z,0.11
2022-08-19T19:10:00.122Z,0.00
2022-08-19T19:20:00.137Z,0.00
2022-08-19T19:30:00.159Z,0.00
2022-08-19T19:40:00.170Z,0.00
2022-08-19T19:50:16.237Z,0.00
2022-08-19T20:00:00.161Z,0.00
2022-08-19T20:10:00.482Z,0.00
2022-08-19T20:20:00.124Z,0.00
2022-08-19T20:30:00.129Z,0.00
2022-08-19T20:40:00.219Z,0.00
2022-08-19T20:50:00.136Z,0.00
2022-08-19T21:00:00.104Z,0.00
2022-08-19T21:10:00.096Z,0.00
2022-08-19T21:20:00.126Z,0.00
2022-08-19T21:30:00.125Z,0.00
2022-08-19T21:40:00.209Z,0.00
2022-08-19T21:50:00.129Z,0.00
2022-08-19T22:00:00.122Z,0.00
2022-08-19T22:10:00.084Z,0.00
2022-08-19T22:20:01.427Z,0.00
2022-08-19T22:30:01.014Z,0.00
2022-08-19T22:40:00.207Z,0.00
2022-08-19T22:50:00.113Z,0.00
2022-08-19T23:00:00.967Z,0.00
2022-08-19T23:10:00.117Z,0.00
2022-08-19T23:20:00.090Z,0.00
2022-08-19T23:30:00.157Z,0.00
2022-08-19T23:40:00.237Z,0.00
2022-08-19T23:50:00.108Z,0.00
